This is the latest recevied weather packets stored in our database for station/object TG5ALY-16. If no packets are shown the sender has not sent any weather packets the latest 10 day(s).
| Time | Temp. | Humidity | Pressure | Rain* | Wind** | Luminosity | Snow |
|---|---|---|---|---|---|---|---|
| 1777939815 | 17.22° C | 77% | 1015 hPa | 0 mm | - | - | - |
| 1777939214 | 17.22° C | 76% | 1015 hPa | 0 mm | - | - | - |
| 1777938613 | 17.78° C | 73% | 1015 hPa | 0 mm | - | - | - |
| 1777938013 | 17.78° C | 73% | 1015 hPa | 0 mm | - | - | - |
| 1777937412 | 17.78° C | 72% | 1015 hPa | 0 mm | - | - | - |
| 1777936812 | 17.78° C | 72% | 1014 hPa | 0 mm | - | - | - |
| 1777936211 | 18.33° C | 70% | 1014 hPa | 0 mm | - | - | - |
| 1777935610 | 18.33° C | 70% | 1014 hPa | 0 mm | - | - | - |
| 1777935010 | 19.44° C | 67% | 1014 hPa | 0 mm | - | - | - |
| 1777934409 | 20.56° C | 64% | 1014 hPa | 0 mm | - | - | - |
| 1777933808 | 20.56° C | 64% | 1014 hPa | 0 mm | - | - | - |
| 1777933208 | 20.56° C | 64% | 1014 hPa | 0 mm | - | - | - |
| 1777932607 | 20° C | 65% | 1014 hPa | 0 mm | - | - | - |
| 1777932006 | 20° C | 65% | 1014 hPa | 0 mm | - | - | - |
| 1777931406 | 19.44° C | 66% | 1014 hPa | 0 mm | - | - | - |
| 1777930805 | 19.44° C | 66% | 1014 hPa | 0 mm | - | - | - |
| 1777930205 | 20° C | 63% | 1014 hPa | 0 mm | - | - | - |
| 1777929604 | 20° C | 63% | 1014 hPa | 0.25 mm | - | - | - |
| 1777929003 | 20° C | 66% | 1014 hPa | 0.25 mm | - | - | - |
| 1777928403 | 20° C | 66% | 1014 hPa | 0.25 mm | - | - | - |
| 1777927802 | 20.56° C | 65% | 1014 hPa | 0.25 mm | - | - | - |
| 1777927201 | 20.56° C | 65% | 1014 hPa | 0.25 mm | - | - | - |
| 1777926601 | 20° C | 69% | 1014 hPa | 0.25 mm | - | - | - |
| 1777926000 | 20° C | 69% | 1015 hPa | 0.25 mm | - | - | - |
| 1777925399 | 20° C | 71% | 1015 hPa | 0.25 mm | - | - | - |
* Rain latest hour (hover to see other rain measurements)
** Current wind speed in m/s (hover to see current wind gust speed)